Time;durP1;ratioP1;P1;durP2;ratioP2;P2;SDS_P1;SDS_P2;PMS_P1;PMS_P2;Temp;Humidity;BMP_temperature;BMP_pressure;BME280_temperature;BME280_humidity;BME280_pressure;Samples;Min_cycle;Max_cycle;Signal;HPM_P1;HPM_P2
2023/06/23 04:22:36;;;;;;;43.17;21.25;;;;;;;17.40;100.00;100602.25;5089271;28;20397;-64
2023/06/23 04:25:04;;;;;;;42.85;20.90;;;;;;;17.46;100.00;100607.63;5089530;28;20032;-65
2023/06/23 04:27:32;;;;;;;39.45;20.88;;;;;;;17.53;100.00;100613.84;5089322;28;20051;-65
2023/06/23 04:29:59;;;;;;;48.35;20.67;;;;;;;17.56;100.00;100624.22;5089155;28;20046;-65
2023/06/23 04:32:24;;;;;;;42.28;20.17;;;;;;;17.64;100.00;100620.47;5089449;28;20031;-65
2023/06/23 04:34:50;;;;;;;40.72;21.55;;;;;;;17.60;100.00;100625.47;5089397;28;20485;-64
2023/06/23 04:37:23;;;;;;;44.33;21.02;;;;;;;17.62;100.00;100626.06;5089169;28;20036;-66
2023/06/23 04:39:56;;;;;;;37.00;20.33;;;;;;;17.62;100.00;100626.06;5088917;28;20066;-64
2023/06/23 04:42:27;;;;;;;39.03;20.00;;;;;;;17.66;100.00;100631.00;5089069;28;20128;-65
2023/06/23 04:44:59;;;;;;;38.28;20.08;;;;;;;17.72;100.00;100627.50;5089185;28;20550;-65
2023/06/23 04:47:28;;;;;;;34.97;18.90;;;;;;;17.73;100.00;100634.56;5089049;28;20067;-65
2023/06/23 04:49:58;;;;;;;41.00;21.02;;;;;;;17.70;100.00;100635.78;5088734;28;20093;-65
2023/06/23 04:52:26;;;;;;;42.28;22.52;;;;;;;17.73;100.00;100629.16;5088973;28;20508;-64
2023/06/23 04:54:56;;;;;;;41.35;21.65;;;;;;;17.71;100.00;100642.00;5088910;28;20085;-65
2023/06/23 04:57:27;;;;;;;41.33;21.15;;;;;;;17.77;100.00;100643.88;5088878;28;20040;-65
2023/06/23 04:59:56;;;;;;;37.42;20.88;;;;;;;17.81;100.00;100655.91;5088713;28;20047;-65
2023/06/23 05:02:25;;;;;;;33.97;20.02;;;;;;;17.85;100.00;100660.66;5088780;28;20036;-65
2023/06/23 05:04:53;;;;;;;37.67;20.95;;;;;;;17.86;100.00;100650.69;5087575;28;20094;-64
2023/06/23 05:07:18;;;;;;;35.53;19.85;;;;;;;17.92;100.00;100665.19;5083918;28;20090;-66
2023/06/23 05:09:49;;;;;;;42.17;20.45;;;;;;;17.98;100.00;100664.34;5087502;28;20036;-65
2023/06/23 05:12:18;;;;;;;35.53;19.23;;;;;;;18.02;100.00;100669.13;5088667;28;20039;-65
2023/06/23 05:14:46;;;;;;;39.47;20.73;;;;;;;18.06;100.00;100673.06;5088513;28;20118;-65
2023/06/23 05:17:14;;;;;;;41.30;20.90;;;;;;;18.07;100.00;100676.56;5088468;28;20036;-55
2023/06/23 05:19:43;;;;;;;36.80;19.70;;;;;;;18.19;100.00;100666.75;5088219;28;20032;-56
2023/06/23 05:22:12;;;;;;;39.35;21.13;;;;;;;18.28;100.00;100678.16;5088309;28;20036;-56
2023/06/23 05:24:45;;;;;;;37.33;21.48;;;;;;;18.34;100.00;100688.09;5088449;28;20036;-52
2023/06/23 05:27:11;;;;;;;37.00;20.30;;;;;;;18.34;100.00;100680.00;5088549;28;20127;-55
2023/06/23 05:29:41;;;;;;;44.13;21.13;;;;;;;18.37;100.00;100684.94;5085891;28;20036;-56
2023/06/23 05:32:11;;;;;;;39.40;20.60;;;;;;;18.40;100.00;100682.66;5064587;28;20412;-55
2023/06/23 05:34:39;;;;;;;35.30;18.63;;;;;;;18.44;100.00;100680.34;5054607;28;20087;-58
2023/06/23 05:37:06;;;;;;;38.83;21.77;;;;;;;18.48;100.00;100687.00;5054629;28;20505;-56
2023/06/23 05:39:35;;;;;;;43.03;20.55;;;;;;;18.60;100.00;100687.97;5054304;28;20528;-57
2023/06/23 05:42:01;;;;;;;34.40;18.95;;;;;;;18.58;100.00;100687.38;5054449;28;20040;-57
2023/06/23 05:44:27;;;;;;;39.20;20.13;;;;;;;18.63;100.00;100690.22;5054481;28;20045;-57
2023/06/23 05:46:56;;;;;;;35.72;19.80;;;;;;;18.68;100.00;100687.75;5054353;28;20037;-57
2023/06/23 05:49:24;;;;;;;38.67;19.45;;;;;;;18.70;100.00;100692.91;5054099;28;20124;-57
2023/06/23 05:51:57;;;;;;;32.28;18.65;;;;;;;18.74;100.00;100686.06;5054404;28;20045;-57
2023/06/23 05:54:26;;;;;;;35.00;19.65;;;;;;;18.82;100.00;100703.88;5054403;28;20103;-56
2023/06/23 05:56:57;;;;;;;31.77;18.95;;;;;;;18.74;100.00;100707.66;5054240;28;20021;-56
2023/06/23 05:59:42;;;;;;;33.45;17.50;;;;;;;18.82;100.00;100707.38;5054106;28;20068;-55
2023/06/23 06:02:15;;;;;;;32.65;18.45;;;;;;;18.80;100.00;100700.56;5054114;28;20068;-54
2023/06/23 06:04:43;;;;;;;35.15;17.90;;;;;;;18.80;100.00;100706.78;5054094;28;20045;-57
2023/06/23 06:07:10;;;;;;;33.05;18.38;;;;;;;18.75;100.00;100709.31;5054059;28;20041;-58
2023/06/23 06:09:37;;;;;;;32.75;18.38;;;;;;;18.85;100.00;100720.47;5053790;28;20041;-58
2023/06/23 06:12:04;;;;;;;32.72;16.73;;;;;;;18.80;100.00;100722.16;5053927;28;20048;-56
2023/06/23 06:14:30;;;;;;;32.55;19.20;;;;;;;18.83;100.00;100727.09;5053998;28;20037;-58
2023/06/23 06:16:57;;;;;;;30.52;17.33;;;;;;;18.80;100.00;100717.59;5053848;28;20505;-55
2023/06/23 06:19:27;;;;;;;27.45;16.52;;;;;;;18.86;100.00;100726.69;5053534;28;20044;-57
2023/06/23 06:21:56;;;;;;;30.20;17.65;;;;;;;18.93;100.00;100720.22;5053823;28;20478;-57
2023/06/23 06:24:23;;;;;;;31.40;18.00;;;;;;;19.08;100.00;100725.31;5053716;28;20029;-57
2023/06/23 06:26:49;;;;;;;30.15;18.00;;;;;;;19.00;100.00;100722.88;5053613;28;20094;-57
2023/06/23 06:29:18;;;;;;;38.28;18.70;;;;;;;18.99;100.00;100726.63;5053552;28;20028;-57
2023/06/23 06:31:47;;;;;;;29.55;17.65;;;;;;;19.06;100.00;100740.91;5053632;28;20374;-55
2023/06/23 06:34:15;;;;;;;30.13;18.67;;;;;;;19.03;100.00;100722.41;5053535;28;20064;-56
2023/06/23 06:36:42;;;;;;;32.72;17.50;;;;;;;19.14;100.00;100746.03;5053558;28;20037;-57
2023/06/23 06:39:10;;;;;;;29.02;17.60;;;;;;;19.22;100.00;100742.25;5053347;28;20048;-53
2023/06/23 06:41:36;;;;;;;29.13;16.52;;;;;;;19.25;100.00;100742.66;5053471;28;20120;-56
2023/06/23 06:44:03;;;;;;;25.52;15.48;;;;;;;19.37;100.00;100752.75;5051294;28;20037;-55
2023/06/23 06:46:29;;;;;;;27.33;16.02;;;;;;;19.52;100.00;100745.16;5053480;28;20048;-57
2023/06/23 06:48:59;;;;;;;27.65;15.50;;;;;;;19.57;100.00;100756.13;5052953;28;20061;-53
2023/06/23 06:51:25;;;;;;;26.10;16.35;;;;;;;19.58;100.00;100754.28;5053276;28;20033;-57
2023/06/23 06:53:50;;;;;;;26.23;15.55;;;;;;;19.68;100.00;100758.13;5053242;28;20037;-56
2023/06/23 06:56:17;;;;;;;22.52;14.80;;;;;;;19.74;100.00;100761.84;5053127;28;20048;-55
2023/06/23 06:58:43;;;;;;;22.25;14.50;;;;;;;19.77;100.00;100761.41;5052862;28;20048;-58
2023/06/23 07:01:09;;;;;;;25.13;14.43;;;;;;;19.71;100.00;100765.81;5053047;28;20064;-56
2023/06/23 07:03:35;;;;;;;22.05;13.73;;;;;;;19.74;100.00;100767.22;5052956;28;20044;-56
2023/06/23 07:06:01;;;;;;;22.17;13.55;;;;;;;19.69;100.00;100762.50;5052959;28;20429;-57
2023/06/23 07:08:27;;;;;;;19.38;11.93;;;;;;;19.72;97.70;100778.28;5052636;28;20079;-54
2023/06/23 07:10:52;;;;;;;19.08;10.85;;;;;;;19.74;97.69;100778.03;5052894;28;20044;-64
2023/06/23 07:13:18;;;;;;;19.17;11.60;;;;;;;19.76;97.77;100781.38;5053135;28;20033;-64
2023/06/23 07:15:43;;;;;;;16.80;10.70;;;;;;;19.89;99.40;100777.72;5052761;28;20039;-63
2023/06/23 07:18:09;;;;;;;19.52;11.18;;;;;;;20.09;95.81;100774.84;5052714;28;20072;-65
2023/06/23 07:20:34;;;;;;;17.35;10.85;;;;;;;20.20;96.96;100780.31;5052388;28;20048;-65
2023/06/23 07:22:59;;;;;;;15.88;9.70;;;;;;;20.40;94.86;100784.69;5052753;28;20124;-64
2023/06/23 07:25:25;;;;;;;16.63;11.07;;;;;;;20.58;91.67;100790.97;5052685;28;20033;-64
2023/06/23 07:27:50;;;;;;;13.85;9.18;;;;;;;20.74;88.56;100796.84;5052578;28;20039;-65
2023/06/23 07:30:16;;;;;;;16.60;9.80;;;;;;;20.83;88.07;100796.31;5052125;28;20078;-64
2023/06/23 07:32:48;;;;;;;14.73;9.43;;;;;;;20.81;87.75;100798.41;5052448;28;20063;-63
2023/06/23 07:35:13;;;;;;;12.48;8.68;;;;;;;20.84;89.34;100802.53;5052370;28;20071;-64
2023/06/23 07:37:39;;;;;;;14.15;9.18;;;;;;;20.92;86.24;100807.63;5052454;28;20300;-64
2023/06/23 07:40:06;;;;;;;13.73;9.32;;;;;;;20.98;88.41;100804.03;5050850;28;20040;-64
2023/06/23 07:42:31;;;;;;;12.83;7.97;;;;;;;20.92;85.93;100807.63;5052305;28;20505;-64
2023/06/23 07:44:57;;;;;;;11.70;8.00;;;;;;;20.89;87.23;100821.66;5052374;28;20295;-64
2023/06/23 07:47:22;;;;;;;9.98;7.47;;;;;;;20.94;86.48;100818.25;5052132;28;20436;-64
2023/06/23 07:49:47;;;;;;;10.80;7.18;;;;;;;21.01;87.70;100822.53;5051767;28;20041;-65
2023/06/23 07:52:13;;;;;;;11.20;7.45;;;;;;;21.07;88.71;100824.34;5052231;28;20025;-64
2023/06/23 07:54:39;;;;;;;9.63;7.05;;;;;;;21.02;84.19;100831.47;5052057;28;20090;-64
2023/06/23 07:57:08;;;;;;;9.60;6.90;;;;;;;21.05;84.94;100829.13;5051732;28;20529;-64
2023/06/23 07:59:34;;;;;;;10.43;6.82;;;;;;;21.26;84.28;100845.97;5051830;28;20029;-65
2023/06/23 08:02:00;;;;;;;11.40;7.03;;;;;;;21.40;81.94;100837.47;5051947;28;20037;-64
2023/06/23 08:04:25;;;;;;;9.25;7.07;;;;;;;21.47;82.87;100837.38;5051832;28;20048;-64
2023/06/23 08:06:50;;;;;;;11.70;7.18;;;;;;;21.47;83.16;100837.38;5051920;28;20048;-64
2023/06/23 08:09:16;;;;;;;8.77;6.40;;;;;;;21.54;81.96;100839.97;5051656;28;20036;-65
2023/06/23 08:11:41;;;;;;;9.85;7.10;;;;;;;21.55;80.99;100841.63;5051997;28;20047;-64
2023/06/23 08:14:07;;;;;;;10.05;6.85;;;;;;;21.67;80.92;100861.47;5051953;28;20048;-64
2023/06/23 08:16:32;;;;;;;11.43;6.55;;;;;;;21.79;80.29;100856.06;5051686;28;20090;-64
2023/06/23 08:18:57;;;;;;;9.52;6.82;;;;;;;22.03;80.05;100857.75;5051474;28;20124;-64
2023/06/23 08:21:23;;;;;;;12.18;7.78;;;;;;;22.18;77.04;100858.16;5051846;28;20052;-63
2023/06/23 08:23:49;;;;;;;11.63;7.57;;;;;;;22.18;76.18;100860.06;5051802;28;20119;-64
2023/06/23 08:26:15;;;;;;;9.25;6.88;;;;;;;22.30;75.20;100855.47;5051763;28;20041;-64
2023/06/23 08:28:40;;;;;;;11.85;7.45;;;;;;;22.33;75.73;100854.16;5051573;28;20029;-64
2023/06/23 08:31:06;;;;;;;9.48;7.53;;;;;;;22.15;76.04;100861.34;5050320;28;20508;-63
2023/06/23 08:33:35;;;;;;;9.27;6.55;;;;;;;22.07;76.19;100850.81;5051673;28;20083;-64
2023/06/23 08:36:03;;;;;;;9.75;6.85;;;;;;;22.09;77.57;100850.59;5051621;28;20032;-63
2023/06/23 08:38:29;;;;;;;11.77;7.05;;;;;;;22.13;76.63;100859.94;5051483;28;20064;-63
2023/06/23 08:40:55;;;;;;;8.57;6.60;;;;;;;22.16;77.26;100856.72;5051602;28;20041;-64
2023/06/23 08:43:26;;;;;;;7.95;6.22;;;;;;;22.31;76.17;100859.00;5051621;28;20045;-63
2023/06/23 08:45:57;;;;;;;9.30;6.78;;;;;;;22.20;73.55;100864.16;5051460;28;20041;-64
2023/06/23 08:48:30;;;;;;;8.50;6.10;;;;;;;22.15;73.27;100858.63;5051217;28;20041;-64
2023/06/23 08:50:57;;;;;;;8.70;6.40;;;;;;;22.28;73.64;100852.13;5051543;28;20393;-64
2023/06/23 08:53:26;;;;;;;7.93;6.30;;;;;;;22.50;73.63;100862.41;5051695;28;20075;-64
2023/06/23 08:55:52;;;;;;;10.45;6.80;;;;;;;22.65;72.75;100860.84;5051419;28;20032;-64
2023/06/23 08:58:20;;;;;;;8.45;5.70;;;;;;;22.62;71.34;100857.78;5051192;28;20068;-63
2023/06/23 09:00:46;;;;;;;;;;;;;;;22.85;70.82;100860.47;5051784;28;20037;-63
2023/06/23 09:03:12;;;;;;;8.23;6.40;;;;;;;22.96;69.70;100865.09;5051431;28;19917;-64
2023/06/23 09:05:41;;;;;;;8.77;5.30;;;;;;;23.25;72.62;100868.66;5051375;28;20124;-64
2023/06/23 09:08:08;;;;;;;8.93;6.45;;;;;;;23.44;67.79;100868.47;5053188;28;20036;-64
2023/06/23 09:10:34;;;;;;;7.93;5.57;;;;;;;23.22;65.99;100873.75;5054969;28;20036;-64
2023/06/23 09:13:23;;;;;;;6.68;5.10;;;;;;;23.48;67.22;100884.06;5055226;28;20037;-62
2023/06/23 09:15:49;;;;;;;6.57;4.78;;;;;;;23.51;69.21;100880.00;5055089;28;20060;-62
2023/06/23 09:18:16;;;;;;;5.75;4.55;;;;;;;23.39;68.56;100876.50;5054845;28;20044;-62
2023/06/23 09:20:46;;;;;;;9.03;4.90;;;;;;;23.39;67.24;100881.94;5054858;28;20048;-58
2023/06/23 09:23:22;;;;;;;6.57;4.18;;;;;;;23.49;68.01;100882.97;5054908;28;20431;-62
2023/06/23 09:25:50;;;;;;;4.90;3.97;;;;;;;23.77;69.61;100882.16;5055252;28;20037;-62
2023/06/23 09:28:27;;;;;;;5.60;4.78;;;;;;;23.74;64.88;100888.09;5054648;28;20049;-63
2023/06/23 09:30:55;;;;;;;5.50;3.90;;;;;;;23.61;67.12;100887.56;5054638;28;20560;-62
2023/06/23 09:33:21;;;;;;;6.18;3.78;;;;;;;23.69;67.29;100898.88;5054863;28;20049;-62
2023/06/23 09:35:48;;;;;;;7.45;4.22;;;;;;;24.01;65.22;100879.31;5054675;28;20036;-63
2023/06/23 09:38:16;;;;;;;;;;;;;;;23.94;62.31;100890.34;5055080;28;20124;-63
2023/06/23 09:40:41;;;;;;;8.60;5.45;;;;;;;24.09;65.11;100879.72;5054626;28;19913;-62
2023/06/23 09:43:07;;;;;;;4.15;3.60;;;;;;;24.17;62.81;100883.09;5053377;28;20049;-62
2023/06/23 09:45:33;;;;;;;5.10;3.88;;;;;;;24.07;60.80;100891.94;5054439;28;20044;-63
2023/06/23 09:47:59;;;;;;;4.70;3.80;;;;;;;24.34;61.04;100892.09;5054473;28;20127;-63
2023/06/23 09:50:27;;;;;;;4.68;3.80;;;;;;;24.47;58.73;100883.59;5054175;28;20071;-63
2023/06/23 09:53:05;;;;;;;4.82;3.72;;;;;;;24.97;59.97;100888.06;5054388;28;20041;-63
2023/06/23 09:55:31;;;;;;;4.20;3.47;;;;;;;25.29;59.78;100887.41;5054309;28;20029;-63
2023/06/23 09:57:58;;;;;;;5.07;4.30;;;;;;;25.24;59.40;100892.81;5054340;28;20028;-61
2023/06/23 10:00:30;;;;;;;;;;;;;;;25.48;58.06;100894.16;5054413;28;20478;-63
2023/06/23 10:03:00;;;;;;;5.60;3.80;;;;;;;25.57;57.73;100891.81;5054261;28;19917;-63
2023/06/23 10:05:32;;;;;;;4.32;3.35;;;;;;;26.08;56.72;100893.16;5066862;28;20056;-62
2023/06/23 10:08:13;;;;;;;3.78;3.00;;;;;;;25.84;55.22;100887.19;5074138;28;20127;-62
2023/06/23 10:10:44;;;;;;;4.63;3.00;;;;;;;25.91;51.49;100889.72;5073813;28;20064;-62
2023/06/23 10:13:09;;;;;;;4.75;3.05;;;;;;;25.70;49.43;100883.22;5073788;28;20068;-62
2023/06/23 10:15:41;;;;;;;4.07;3.10;;;;;;;26.03;51.99;100895.84;5073809;28;20060;-62
2023/06/23 10:18:10;;;;;;;4.65;3.45;;;;;;;26.13;51.65;100882.25;5073968;28;20393;-62
2023/06/23 10:20:36;;;;;;;5.25;3.95;;;;;;;25.52;52.48;100884.41;5073644;28;20069;-60
2023/06/23 10:23:02;;;;;;;4.72;3.17;;;;;;;25.63;53.32;100893.53;5073874;28;20032;-61
2023/06/23 10:25:28;;;;;;;4.07;3.17;;;;;;;25.63;51.31;100891.63;5073806;28;20555;-61
2023/06/23 10:27:57;;;;;;;3.92;2.95;;;;;;;25.67;51.20;100892.72;5073763;28;20490;-63
2023/06/23 10:30:24;;;;;;;3.97;2.58;;;;;;;26.16;52.54;100881.75;5073268;28;20493;-63
2023/06/23 10:32:54;;;;;;;5.78;3.75;;;;;;;26.21;50.44;100892.72;5073685;28;20041;-61
2023/06/23 10:35:23;;;;;;;3.95;3.13;;;;;;;25.92;52.77;100889.44;5073550;28;20067;-63
2023/06/23 10:37:58;;;;;;;3.83;3.33;;;;;;;25.42;50.39;100884.28;5073563;28;20021;-63
2023/06/23 10:40:25;;;;;;;3.00;2.70;;;;;;;25.13;50.38;100884.50;5073341;28;20051;-64
2023/06/23 10:42:52;;;;;;;;;;;;;;;25.05;51.10;100890.41;5073807;28;20123;-62
2023/06/23 10:45:17;;;;;;;4.43;2.58;;;;;;;25.26;51.88;100885.19;5073502;28;19913;-63
2023/06/23 10:47:43;;;;;;;3.35;2.70;;;;;;;25.67;52.66;100884.53;5073491;28;20045;-64
2023/06/23 10:50:10;;;;;;;5.22;3.22;;;;;;;25.88;50.43;100887.50;5073138;28;20047;-63
2023/06/23 10:52:37;;;;;;;4.15;3.28;;;;;;;26.18;48.61;100881.47;5073279;28;20037;-64
2023/06/23 10:55:55;;;;;;;4.60;3.47;;;;;;;25.91;50.23;100893.25;5073340;28;20041;-63
2023/06/23 10:58:20;;;;;;;2.95;2.47;;;;;;;25.75;52.58;100901.56;5039162;28;20044;-61
2023/06/23 11:01:00;;;;;;;3.10;2.58;;;;;;;25.42;54.48;100895.19;5073125;28;20051;-61
2023/06/23 11:03:35;;;;;;;3.97;3.05;;;;;;;25.00;56.19;100901.22;5073076;28;20083;-63
2023/06/23 11:06:09;;;;;;;4.32;3.63;;;;;;;24.88;56.05;100908.69;5073021;28;20500;-63
2023/06/23 11:08:37;;;;;;;5.05;3.53;;;;;;;25.42;53.79;100900.63;5072782;28;20752;-64
2023/06/23 11:11:03;;;;;;;4.35;3.10;;;;;;;25.85;51.15;100902.50;5072773;28;20040;-63
2023/06/23 11:13:52;;;;;;;3.65;2.75;;;;;;;26.45;49.68;100908.72;5071646;28;20516;-62
2023/06/23 11:16:26;;;;;;;3.58;2.85;;;;;;;27.17;47.67;100899.84;5067017;28;20052;-62
2023/06/23 11:18:54;;;;;;;3.33;2.25;;;;;;;27.85;45.07;100895.13;5072507;28;20044;-63
2023/06/23 11:21:31;;;;;;;3.25;2.28;;;;;;;28.44;43.48;100887.47;5072594;28;20097;-61
2023/06/23 11:24:10;;;;;;;3.50;2.80;;;;;;;29.02;44.40;100890.63;5072664;28;20470;-64
2023/06/23 11:26:36;;;;;;;2.67;2.17;;;;;;;28.60;44.12;100889.88;5072433;28;20266;-61
2023/06/23 11:29:08;;;;;;;3.33;2.80;;;;;;;27.99;44.18;100894.59;5072293;28;20032;-63
2023/06/23 11:31:33;;;;;;;3.38;2.83;;;;;;;28.44;46.18;100892.94;5071985;28;20378;-63
2023/06/23 11:34:02;;;;;;;3.20;2.35;;;;;;;28.86;45.11;100887.88;5072460;28;20052;-61
2023/06/23 11:36:29;;;;;;;4.38;2.63;;;;;;;28.32;41.38;100890.50;5072365;28;20382;-62
2023/06/23 11:38:56;;;;;;;4.85;2.67;;;;;;;28.24;42.11;100902.81;5072049;28;20036;-61
2023/06/23 11:41:29;;;;;;;2.83;2.25;;;;;;;28.38;44.98;100889.41;5072343;28;20039;-64
2023/06/23 11:43:59;;;;;;;2.60;2.20;;;;;;;28.82;42.45;100892.31;5072402;28;20067;-62
2023/06/23 11:46:25;;;;;;;3.45;2.20;;;;;;;29.22;40.12;100886.97;5071924;28;20036;-63
2023/06/23 11:48:51;;;;;;;2.58;2.20;;;;;;;29.25;41.70;100891.88;5061571;28;20081;-64
2023/06/23 11:51:18;;;;;;;3.90;1.80;;;;;;;29.33;38.95;100870.16;5062801;28;20167;-60
2023/06/23 11:53:49;;;;;;;2.22;1.80;;;;;;;28.68;40.21;100885.75;5061125;28;20029;-62
2023/06/23 11:56:16;;;;;;;3.13;2.35;;;;;;;28.04;40.66;100891.84;5046052;28;20029;-63
2023/06/23 11:58:46;;;;;;;;;;;;;;;27.53;40.97;100887.13;5060920;28;20033;-58
2023/06/23 12:01:12;;;;;;;2.03;1.70;;;;;;;26.95;42.16;100885.53;5061615;28;19960;-61
2023/06/23 12:03:38;;;;;;;2.33;1.80;;;;;;;26.98;44.21;100885.81;5062776;28;20037;-62
2023/06/23 12:06:04;;;;;;;2.28;1.80;;;;;;;26.97;43.26;100891.53;5061475;28;20397;-62
2023/06/23 12:08:29;;;;;;;2.00;1.70;;;;;;;26.58;45.29;100888.31;5044054;28;20036;-61
2023/06/23 12:10:55;;;;;;;1.90;1.67;;;;;;;26.44;42.53;100875.13;5062329;28;20041;-61
2023/06/23 12:13:21;;;;;;;2.60;1.70;;;;;;;27.08;40.99;100881.50;5060518;28;20063;-63
2023/06/23 12:15:47;;;;;;;3.20;1.60;;;;;;;27.71;41.41;100885.81;5061925;28;20028;-64
2023/06/23 12:18:13;;;;;;;2.95;1.75;;;;;;;28.52;38.71;100881.41;5061289;28;20119;-62
2023/06/23 12:20:41;;;;;;;1.70;1.40;;;;;;;29.04;34.99;100874.69;5053721;28;20045;-63
2023/06/23 12:23:10;;;;;;;1.60;1.40;;;;;;;29.74;35.12;100872.69;5051751;28;20170;-62
2023/06/23 12:25:41;;;;;;;1.92;1.48;;;;;;;29.73;35.97;100871.84;5051593;28;20040;-61
2023/06/23 12:28:13;;;;;;;3.00;1.80;;;;;;;29.68;35.98;100868.31;5054072;28;20032;-63
2023/06/23 12:30:40;;;;;;;2.00;1.42;;;;;;;29.07;37.96;100865.91;5053751;28;20082;-61
2023/06/23 12:33:19;;;;;;;2.67;1.70;;;;;;;29.53;35.33;100865.66;5051859;28;20025;-63
2023/06/23 12:36:02;;;;;;;2.22;1.50;;;;;;;29.74;37.29;100864.44;5050245;28;20033;-62
2023/06/23 12:38:34;;;;;;;2.47;1.80;;;;;;;30.03;36.16;100866.38;5051221;28;20116;-62
2023/06/23 12:41:16;;;;;;;3.45;1.65;;;;;;;30.02;34.24;100864.75;5051414;28;20072;-63
2023/06/23 12:43:44;;;;;;;2.20;1.60;;;;;;;30.74;34.56;100862.97;5054158;28;20040;-63
2023/06/23 12:46:11;;;;;;;1.88;1.42;;;;;;;31.23;33.39;100861.78;5055451;28;20082;-61
2023/06/23 12:48:40;;;;;;;2.70;1.63;;;;;;;31.74;34.61;100866.56;5055266;28;20064;-63
2023/06/23 12:51:06;;;;;;;1.92;1.50;;;;;;;31.08;34.13;100860.88;5055359;28;20035;-63
2023/06/23 12:53:33;;;;;;;1.55;1.35;;;;;;;30.56;34.85;100867.25;5055479;28;20064;-63
2023/06/23 12:55:58;;;;;;;2.10;1.50;;;;;;;29.73;35.57;100866.38;5055145;28;20469;-61
2023/06/23 12:58:24;;;;;;;1.97;1.63;;;;;;;29.27;34.83;100865.78;5054993;28;20064;-61
2023/06/23 13:00:49;;;;;;;4.10;1.50;;;;;;;28.71;34.76;100873.44;5055523;28;20670;-60
2023/06/23 13:03:15;;;;;;;2.83;1.55;;;;;;;28.57;35.20;100882.22;5055159;28;20406;-62
2023/06/23 13:05:41;;;;;;;2.67;1.50;;;;;;;27.85;37.66;100864.19;5055198;28;20037;-62
2023/06/23 13:08:08;;;;;;;3.17;1.30;;;;;;;27.91;36.25;100865.00;5055190;28;20062;-62
2023/06/23 13:10:35;;;;;;;1.85;1.52;;;;;;;28.09;36.38;100858.97;5054680;28;20055;-63
2023/06/23 13:13:00;;;;;;;3.42;1.90;;;;;;;28.30;37.10;100857.03;5054875;28;20075;-60
2023/06/23 13:15:29;;;;;;;2.42;1.40;;;;;;;28.62;37.37;100862.19;5054795;28;20033;-61
2023/06/23 13:17:54;;;;;;;2.22;1.70;;;;;;;28.70;35.18;100856.16;5054871;28;20048;-62
2023/06/23 13:20:20;;;;;;;2.65;1.80;;;;;;;28.81;37.68;100857.75;5054352;28;20402;-60
2023/06/23 13:22:45;;;;;;;2.47;1.60;;;;;;;28.52;37.26;100854.03;5054845;28;20076;-60
2023/06/23 13:25:11;;;;;;;2.15;1.63;;;;;;;28.32;36.02;100850.22;5054578;28;20037;-63
2023/06/23 13:27:36;;;;;;;3.65;1.83;;;;;;;28.17;37.13;100858.44;5054702;28;20033;-62
2023/06/23 13:30:02;;;;;;;2.28;1.45;;;;;;;28.04;37.01;100870.78;5054428;28;20048;-60
2023/06/23 13:32:27;;;;;;;2.10;1.52;;;;;;;28.03;39.22;100868.28;5054474;28;20045;-60
2023/06/23 13:34:53;;;;;;;2.33;1.65;;;;;;;28.04;38.09;100859.00;5054490;28;20079;-61
2023/06/23 13:37:18;;;;;;;2.83;1.80;;;;;;;28.20;36.63;100855.13;5054256;28;20398;-63
2023/06/23 13:39:43;;;;;;;2.25;1.70;;;;;;;28.28;39.04;100853.75;5054134;28;20041;-64
2023/06/23 13:42:09;;;;;;;2.03;1.50;;;;;;;28.29;37.75;100848.00;5054439;28;20071;-62
2023/06/23 13:44:34;;;;;;;2.30;1.75;;;;;;;28.29;36.92;100839.78;5054486;28;20105;-60
2023/06/23 13:47:00;;;;;;;2.22;1.55;;;;;;;28.41;38.33;100852.41;5054260;28;20065;-61
2023/06/23 13:49:25;;;;;;;1.90;1.40;;;;;;;28.48;38.15;100848.25;5053986;28;20029;-59
2023/06/23 13:51:51;;;;;;;1.52;1.42;;;;;;;28.54;37.74;100843.59;5054322;28;20486;-61
2023/06/23 13:54:17;;;;;;;2.28;1.60;;;;;;;28.55;37.00;100853.44;5052523;28;20579;-62
2023/06/23 13:56:43;;;;;;;1.38;1.27;;;;;;;28.24;34.60;100847.22;5053990;28;20032;-61
2023/06/23 13:59:09;;;;;;;2.70;1.57;;;;;;;27.82;34.64;100851.88;5053831;28;20033;-60
2023/06/23 14:01:34;;;;;;;2.40;1.77;;;;;;;27.52;34.30;100849.91;5054114;28;20536;-62
2023/06/23 14:04:00;;;;;;;2.47;1.42;;;;;;;27.62;36.78;100862.78;5053959;28;20079;-61
2023/06/23 14:06:25;;;;;;;1.55;1.25;;;;;;;27.39;35.71;100858.66;5053828;28;20033;-62
2023/06/23 14:08:51;;;;;;;1.73;1.30;;;;;;;27.41;36.66;100867.38;5053435;28;20056;-63
2023/06/23 14:11:17;;;;;;;1.95;1.40;;;;;;;27.41;36.02;100864.66;5052621;28;20129;-61
2023/06/23 14:13:43;;;;;;;1.95;1.60;;;;;;;27.20;36.99;100866.53;5053817;28;20406;-62
2023/06/23 14:16:12;;;;;;;1.75;1.30;;;;;;;27.09;36.13;100869.47;5053557;28;20048;-63
2023/06/23 14:18:38;;;;;;;3.13;1.80;;;;;;;26.81;36.76;100863.31;5053428;28;20098;-61
2023/06/23 14:21:03;;;;;;;2.63;1.60;;;;;;;26.85;37.61;100874.53;5053516;28;20095;-60
2023/06/23 14:23:28;;;;;;;2.10;1.40;;;;;;;26.87;37.35;100869.66;5053487;28;20041;-62
2023/06/23 14:25:55;;;;;;;2.10;1.50;;;;;;;26.84;37.89;100872.91;5053455;28;20041;-64
2023/06/23 14:28:20;;;;;;;1.90;1.65;;;;;;;26.93;37.28;100871.28;5053301;28;20064;-63
2023/06/23 14:30:46;;;;;;;2.67;1.70;;;;;;;27.00;37.31;100866.41;5053335;28;20064;-63
2023/06/23 14:33:11;;;;;;;1.98;1.67;;;;;;;26.86;37.15;100854.31;5053405;28;20127;-60
2023/06/23 14:35:37;;;;;;;3.10;1.60;;;;;;;26.83;37.58;100866.59;5053375;28;20037;-60
2023/06/23 14:38:05;;;;;;;3.10;1.63;;;;;;;26.82;38.80;100861.41;5053258;28;20545;-63
2023/06/23 14:40:31;;;;;;;2.55;1.67;;;;;;;26.65;38.63;100869.78;5052988;28;20455;-63
2023/06/23 14:42:57;;;;;;;2.88;1.80;;;;;;;26.66;38.10;100876.91;5053262;28;20437;-62
2023/06/23 14:45:23;;;;;;;1.73;1.50;;;;;;;26.57;39.00;100868.38;5053124;28;20090;-62
2023/06/23 14:47:48;;;;;;;3.75;1.63;;;;;;;26.47;37.46;100876.50;5053202;28;20509;-66
2023/06/23 14:50:14;;;;;;;1.98;1.58;;;;;;;26.50;39.07;100878.72;5052788;28;20040;-62
2023/06/23 14:52:39;;;;;;;2.55;1.50;;;;;;;26.45;38.18;100876.78;5052957;28;20037;-63
2023/06/23 14:55:05;;;;;;;1.73;1.38;;;;;;;26.36;38.63;100877.50;5052978;28;20047;-63
2023/06/23 14:57:31;;;;;;;2.17;1.58;;;;;;;26.28;38.15;100876.09;5052874;28;20040;-62
2023/06/23 14:59:56;;;;;;;2.20;1.60;;;;;;;26.38;39.43;100880.78;5051381;28;20114;-61
2023/06/23 15:02:22;;;;;;;1.95;1.50;;;;;;;26.38;39.16;100887.06;5052827;28;20079;-58
2023/06/23 15:04:47;;;;;;;2.45;1.50;;;;;;;26.44;38.58;100886.06;5052393;28;20095;-62
2023/06/23 15:07:12;;;;;;;2.05;1.50;;;;;;;26.69;37.48;100892.78;5052468;28;20036;-62
2023/06/23 15:09:38;;;;;;;1.83;1.60;;;;;;;26.72;38.26;100886.75;5052641;28;20036;-61
2023/06/23 15:12:04;;;;;;;3.13;1.55;;;;;;;26.76;37.71;100882.44;5052718;28;20501;-61
2023/06/23 15:14:29;;;;;;;1.70;1.50;;;;;;;26.89;38.09;100887.41;5053252;28;20041;-62
2023/06/23 15:16:54;;;;;;;3.17;1.45;;;;;;;26.80;37.41;100883.56;5052733;28;20452;-60
2023/06/23 15:19:21;;;;;;;1.90;1.50;;;;;;;26.99;37.80;100889.34;5052539;28;20040;-60
2023/06/23 15:21:47;;;;;;;2.05;1.40;;;;;;;27.15;37.76;100884.81;5052753;28;20040;-59
2023/06/23 15:24:12;;;;;;;1.77;1.38;;;;;;;27.04;36.01;100883.91;5052720;28;20037;-58
2023/06/23 15:26:38;;;;;;;2.80;1.33;;;;;;;26.93;36.43;100883.06;5051441;28;20378;-62
2023/06/23 15:29:03;;;;;;;2.60;1.80;;;;;;;26.86;36.19;100887.09;5052316;28;20052;-62
2023/06/23 15:31:29;;;;;;;2.38;1.60;;;;;;;26.47;36.46;100877.34;5052454;28;20041;-60
2023/06/23 15:33:54;;;;;;;2.75;1.70;;;;;;;26.46;37.30;100886.63;5052643;28;20455;-60
2023/06/23 15:36:20;;;;;;;1.95;1.55;;;;;;;26.42;36.94;100880.03;5052389;28;20062;-63
2023/06/23 15:38:45;;;;;;;2.80;1.60;;;;;;;26.26;35.84;100883.72;5052105;28;20046;-61
2023/06/23 15:41:10;;;;;;;4.45;1.77;;;;;;;26.12;35.90;100885.25;5052355;28;20505;-62
2023/06/23 15:43:36;;;;;;;3.30;2.13;;;;;;;26.23;36.49;100887.81;5052231;28;20120;-62